createdAt,value
2019-03-11T00:02:44.416Z,12.68
2019-03-11T00:03:48.314Z,12.25
2019-03-11T00:06:35.184Z,8.35
2019-03-11T00:07:39.331Z,10.48
2019-03-11T00:08:43.221Z,13.68
2019-03-11T00:09:47.408Z,10.08
2019-03-11T00:13:31.841Z,11.40
2019-03-11T00:14:35.804Z,15.53
2019-03-11T00:15:39.890Z,12.63
2019-03-11T00:16:43.784Z,14.70
2019-03-11T00:17:47.620Z,13.18
2019-03-11T00:18:51.690Z,14.40
2019-03-11T00:19:55.576Z,16.35
2019-03-11T00:20:59.848Z,15.05
2019-03-11T00:22:03.938Z,10.85
2019-03-11T00:23:08.462Z,9.88
2019-03-11T00:24:12.567Z,10.32
2019-03-11T00:25:35.656Z,13.48
2019-03-11T00:26:39.872Z,16.10
2019-03-11T00:28:02.888Z,14.90
2019-03-11T00:29:07.097Z,16.25
2019-03-11T00:30:30.146Z,14.50
2019-03-11T00:31:34.304Z,15.60
2019-03-11T00:32:38.211Z,14.98
2019-03-11T00:33:42.030Z,16.48
2019-03-11T00:34:46.228Z,15.90
2019-03-11T00:35:50.044Z,12.85
2019-03-11T00:36:54.326Z,16.17
2019-03-11T00:37:58.219Z,13.95
2019-03-11T00:40:25.487Z,13.22
2019-03-11T00:41:29.667Z,16.62
2019-03-11T00:42:52.684Z,14.40
2019-03-11T00:43:56.842Z,17.52
2019-03-11T00:45:00.739Z,16.85
2019-03-11T00:46:24.049Z,16.25
2019-03-11T00:48:51.491Z,16.48
2019-03-11T00:50:15.115Z,13.72
2019-03-11T00:53:06.571Z,9.60
2019-03-11T00:54:10.400Z,13.13
2019-03-11T00:55:53.882Z,18.27
2019-03-11T00:58:06.977Z,17.77
2019-03-11T00:59:11.490Z,14.70
2019-03-11T01:00:35.119Z,17.05
2019-03-11T01:01:58.265Z,12.10
2019-03-11T01:03:21.285Z,14.07
2019-03-11T01:04:44.416Z,15.03
2019-03-11T01:05:48.819Z,13.93
2019-03-11T01:08:02.492Z,17.52
2019-03-11T01:09:46.662Z,14.10
2019-03-11T01:11:09.623Z,17.85
2019-03-11T01:13:41.961Z,14.80
2019-03-11T01:15:04.845Z,20.40
2019-03-11T01:16:27.863Z,13.58
2019-03-11T01:17:32.001Z,18.42
2019-03-11T01:18:55.023Z,17.52
2019-03-11T01:20:18.118Z,11.48
2019-03-11T01:21:41.006Z,16.10
2019-03-11T01:23:04.136Z,10.30
2019-03-11T01:24:08.307Z,11.95
2019-03-11T01:25:12.810Z,13.40
2019-03-11T01:26:16.625Z,12.93
2019-03-11T01:27:20.706Z,10.72
2019-03-11T01:28:24.678Z,14.78
2019-03-11T01:29:28.507Z,13.20
2019-03-11T01:30:32.465Z,13.60
2019-03-11T01:31:36.291Z,14.85
2019-03-11T01:32:40.519Z,17.95
2019-03-11T01:33:44.370Z,15.18
2019-03-11T01:34:48.429Z,22.32
2019-03-11T01:35:52.629Z,13.28
2019-03-11T01:37:16.010Z,16.45
2019-03-11T01:38:20.394Z,10.80
2019-03-11T01:40:47.463Z,19.52
2019-03-11T01:41:51.630Z,17.30
2019-03-11T01:43:15.293Z,15.85
2019-03-11T01:44:19.575Z,12.45
2019-03-11T01:45:42.595Z,18.77
2019-03-11T01:46:46.668Z,12.20
2019-03-11T01:47:50.834Z,14.30
2019-03-11T01:49:14.290Z,12.88
2019-03-11T01:50:37.567Z,18.92
2019-03-11T01:52:00.662Z,12.03
2019-03-11T01:53:23.695Z,12.58
2019-03-11T01:54:46.975Z,18.57
2019-03-11T01:56:10.574Z,21.55
2019-03-11T01:57:33.885Z,18.15
2019-03-11T01:58:38.297Z,17.12
2019-03-11T01:59:42.186Z,16.65
2019-03-11T02:00:46.409Z,14.70
2019-03-11T02:01:50.626Z,19.42
2019-03-11T02:02:54.945Z,21.27
2019-03-11T02:03:59.015Z,14.58
2019-03-11T02:05:02.917Z,19.25
2019-03-11T02:06:07.063Z,12.85
2019-03-11T02:07:11.133Z,24.50
2019-03-11T02:08:15.355Z,19.00
2019-03-11T02:09:19.752Z,16.42
2019-03-11T02:10:23.885Z,16.75
2019-03-11T02:11:27.777Z,17.17
2019-03-11T02:12:31.849Z,16.50
2019-03-11T02:13:54.888Z,16.48
2019-03-11T02:15:17.783Z,16.07
2019-03-11T02:18:03.848Z,11.25
2019-03-11T02:19:07.927Z,14.93
2019-03-11T02:20:30.944Z,24.50
2019-03-11T02:21:53.964Z,20.35
2019-03-11T02:22:58.494Z,15.90
2019-03-11T02:24:02.325Z,14.10
2019-03-11T02:26:48.361Z,20.55
2019-03-11T02:27:52.558Z,15.32
2019-03-11T02:28:56.391Z,16.70
2019-03-11T02:31:42.380Z,18.05
2019-03-11T02:32:46.617Z,21.50
2019-03-11T02:33:50.519Z,21.52
2019-03-11T02:36:36.876Z,17.32
2019-03-11T02:38:00.089Z,15.78
2019-03-11T02:39:45.482Z,21.07
2019-03-11T02:40:49.921Z,16.02
2019-03-11T02:43:35.906Z,17.10
2019-03-11T02:44:59.187Z,21.33
2019-03-11T02:47:45.145Z,27.00
2019-03-11T02:48:49.340Z,16.80
2019-03-11T02:49:53.832Z,16.50
2019-03-11T02:51:16.721Z,23.27
2019-03-11T02:52:40.004Z,18.23
2019-03-11T02:54:03.332Z,13.83
2019-03-11T02:55:26.630Z,15.30
2019-03-11T02:56:50.097Z,15.23
2019-03-11T02:58:13.515Z,20.12
2019-03-11T02:59:36.845Z,21.77
2019-03-11T03:00:40.944Z,24.72
2019-03-11T03:02:03.765Z,14.95
2019-03-11T03:03:45.761Z,17.98
2019-03-11T03:06:26.242Z,12.28
2019-03-11T03:07:30.312Z,14.25
2019-03-11T03:08:53.265Z,19.12
2019-03-11T03:10:16.361Z,18.17
2019-03-11T03:11:39.543Z,21.55
2019-03-11T03:12:43.794Z,15.58
2019-03-11T03:13:47.865Z,23.80
2019-03-11T03:15:10.948Z,21.82
2019-03-11T03:16:15.051Z,18.50
2019-03-11T03:17:18.883Z,20.40
2019-03-11T03:18:42.075Z,11.93
2019-03-11T03:19:46.174Z,14.18
2019-03-11T03:21:09.221Z,19.75
2019-03-11T03:22:32.465Z,15.08
2019-03-11T03:23:36.913Z,20.00
2019-03-11T03:24:40.730Z,17.52
2019-03-11T03:25:44.635Z,14.23
2019-03-11T03:26:48.869Z,21.05
2019-03-11T03:27:53.225Z,17.02
2019-03-11T03:28:57.086Z,21.00
2019-03-11T03:30:00.996Z,20.72
2019-03-11T03:31:04.895Z,29.70
2019-03-11T03:32:08.877Z,20.08
2019-03-11T03:33:13.329Z,15.53
2019-03-11T03:34:17.386Z,16.77
2019-03-11T03:35:21.477Z,24.72
2019-03-11T03:36:25.685Z,16.42
2019-03-11T03:37:29.585Z,20.55
2019-03-11T03:38:33.736Z,22.85
2019-03-11T03:39:38.255Z,16.60
2019-03-11T03:41:01.206Z,17.87
2019-03-11T03:43:47.669Z,27.90
2019-03-11T03:45:29.822Z,20.23
2019-03-11T03:46:52.836Z,19.07
2019-03-11T03:48:16.207Z,13.90
2019-03-11T03:49:40.706Z,15.43
2019-03-11T03:51:03.681Z,16.50
2019-03-11T03:52:07.584Z,21.97
2019-03-11T03:53:30.592Z,19.67
2019-03-11T03:54:53.615Z,13.93
2019-03-11T03:56:16.675Z,18.67
2019-03-11T03:57:39.829Z,15.60
2019-03-11T03:58:44.264Z,17.85
2019-03-11T03:59:48.868Z,22.95
2019-03-11T04:00:52.698Z,22.20
2019-03-11T04:03:38.611Z,14.55
2019-03-11T04:04:42.544Z,19.37
2019-03-11T04:06:05.853Z,20.02
2019-03-11T04:07:10.300Z,19.02
2019-03-11T04:08:14.445Z,13.18
2019-03-11T04:09:18.261Z,20.68
2019-03-11T04:10:22.722Z,19.85
2019-03-11T04:11:26.702Z,17.40
2019-03-11T04:12:30.593Z,17.42
2019-03-11T04:13:34.490Z,17.07
2019-03-11T04:14:38.892Z,17.55
2019-03-11T04:15:42.715Z,16.77
2019-03-11T04:16:46.776Z,16.90
2019-03-11T04:17:50.770Z,20.15
2019-03-11T04:18:56.157Z,15.35
2019-03-11T04:20:00.527Z,14.03
2019-03-11T04:21:04.971Z,15.63
2019-03-11T04:22:09.201Z,16.07
2019-03-11T04:23:13.439Z,16.07
2019-03-11T04:24:17.648Z,15.70
2019-03-11T04:25:21.547Z,21.23
2019-03-11T04:26:30.168Z,13.75
2019-03-11T04:27:34.116Z,17.42
2019-03-11T04:28:57.760Z,18.05
2019-03-11T04:31:45.695Z,15.15
2019-03-11T04:33:08.716Z,17.32
2019-03-11T04:34:32.006Z,15.40
2019-03-11T04:35:55.178Z,19.82
2019-03-11T04:37:18.490Z,13.50
2019-03-11T04:38:41.375Z,19.48
2019-03-11T04:41:08.400Z,15.90
2019-03-11T04:42:31.895Z,14.40
2019-03-11T04:43:35.883Z,13.85
2019-03-11T04:44:39.705Z,17.92
2019-03-11T04:45:44.182Z,13.25
2019-03-11T04:46:48.157Z,16.27
2019-03-11T04:47:52.315Z,13.88
2019-03-11T04:48:56.140Z,16.48
2019-03-11T04:50:00.683Z,14.05
2019-03-11T04:51:04.538Z,14.90
2019-03-11T04:52:08.933Z,17.45
2019-03-11T04:53:12.767Z,13.90
2019-03-11T04:54:35.781Z,22.90
2019-03-11T04:55:39.998Z,12.25
2019-03-11T04:56:44.231Z,12.82
2019-03-11T04:58:07.339Z,10.95
2019-03-11T05:01:15.246Z,16.05
2019-03-11T05:02:19.211Z,9.55
2019-03-11T05:03:42.858Z,14.83
2019-03-11T05:04:47.231Z,12.37
2019-03-11T05:07:33.621Z,7.05
2019-03-11T05:08:37.534Z,9.35
2019-03-11T05:09:41.979Z,13.13
2019-03-11T05:10:45.954Z,10.63
2019-03-11T05:11:49.779Z,10.60
2019-03-11T05:12:53.743Z,9.98
2019-03-11T05:13:57.847Z,9.43
2019-03-11T05:16:43.887Z,10.43
2019-03-11T05:17:48.936Z,11.00
2019-03-11T05:18:54.075Z,12.50
2019-03-11T05:19:57.969Z,8.80
2019-03-11T05:21:02.125Z,9.75
2019-03-11T05:22:06.519Z,10.63
2019-03-11T05:23:10.591Z,11.53
2019-03-11T05:24:14.419Z,9.30
2019-03-11T05:25:18.383Z,11.08
2019-03-11T05:26:22.279Z,9.43
2019-03-11T05:27:26.762Z,8.95
2019-03-11T05:28:30.835Z,6.42
2019-03-11T05:29:34.898Z,14.68
2019-03-11T05:30:39.120Z,9.15
2019-03-11T05:31:42.938Z,8.83
2019-03-11T05:32:47.117Z,8.85
2019-03-11T05:33:51.012Z,8.83
2019-03-11T05:34:54.906Z,10.35
2019-03-11T05:35:58.737Z,11.68
2019-03-11T05:37:03.062Z,9.93
2019-03-11T05:38:07.187Z,11.15
2019-03-11T05:39:11.015Z,9.13
2019-03-11T05:40:14.983Z,6.30
2019-03-11T05:41:19.117Z,7.80
2019-03-11T05:42:23.260Z,3.72
2019-03-11T05:43:27.160Z,7.78
2019-03-11T05:44:31.057Z,6.42
2019-03-11T05:45:35.688Z,5.83
2019-03-11T05:46:39.763Z,14.53
2019-03-11T05:47:44.226Z,10.58
2019-03-11T05:48:48.074Z,8.13
2019-03-11T05:49:52.208Z,8.85
2019-03-11T05:50:56.348Z,10.50
2019-03-11T05:52:00.235Z,8.90
2019-03-11T05:53:04.370Z,6.47
2019-03-11T05:54:08.281Z,10.85
2019-03-11T05:55:12.457Z,5.12
2019-03-11T05:56:16.524Z,9.83
2019-03-11T05:57:20.597Z,8.28
2019-03-11T05:58:24.667Z,6.00
2019-03-11T05:59:28.822Z,5.95
2019-03-11T06:00:33.260Z,8.08
2019-03-11T06:01:37.078Z,8.03
2019-03-11T06:02:41.457Z,7.78
2019-03-11T06:03:45.600Z,3.52
2019-03-11T06:04:49.651Z,6.47
2019-03-11T06:05:53.867Z,4.78
2019-03-11T06:06:57.680Z,13.28
2019-03-11T06:08:02.091Z,5.37
2019-03-11T06:09:07.753Z,2.87
2019-03-11T06:10:11.861Z,6.22
2019-03-11T06:11:15.923Z,6.08
2019-03-11T06:12:20.629Z,5.70
2019-03-11T06:13:43.795Z,6.05
2019-03-11T06:14:47.712Z,6.33
2019-03-11T06:16:11.041Z,6.33
2019-03-11T06:17:34.274Z,5.37
2019-03-11T06:18:57.481Z,6.10
2019-03-11T06:20:39.799Z,4.50
2019-03-11T06:21:46.908Z,2.77
2019-03-11T06:22:51.191Z,4.37
2019-03-11T06:24:14.353Z,3.65
2019-03-11T06:25:18.630Z,5.08
2019-03-11T06:28:04.976Z,4.58
2019-03-11T06:29:30.798Z,3.22
2019-03-11T06:30:34.682Z,4.87
2019-03-11T06:31:39.091Z,1.65
2019-03-11T06:32:42.925Z,4.37
2019-03-11T06:33:47.127Z,4.00
2019-03-11T06:35:10.332Z,6.10
2019-03-11T06:36:14.549Z,2.62
2019-03-11T06:37:18.684Z,4.87
2019-03-11T06:38:41.890Z,2.67
2019-03-11T06:39:46.004Z,5.08
2019-03-11T06:40:49.828Z,3.77
2019-03-11T06:43:16.935Z,3.17
2019-03-11T06:44:39.960Z,3.80
2019-03-11T06:45:43.879Z,4.50
2019-03-11T06:47:07.275Z,4.12
2019-03-11T06:48:11.514Z,4.33
2019-03-11T06:49:15.635Z,2.90
2019-03-11T06:50:19.876Z,3.85
2019-03-11T06:51:43.030Z,4.53
2019-03-11T06:53:06.252Z,2.87
2019-03-11T06:54:10.375Z,3.12
2019-03-11T06:55:53.849Z,7.10
2019-03-11T06:57:16.734Z,1.57
2019-03-11T06:58:20.853Z,2.65
2019-03-11T06:59:24.664Z,3.25
2019-03-11T07:00:47.898Z,3.55
2019-03-11T07:01:51.802Z,3.80
2019-03-11T07:03:15.157Z,4.83
2019-03-11T07:04:38.177Z,3.60
2019-03-11T07:06:01.321Z,3.67
2019-03-11T07:07:24.821Z,2.27
2019-03-11T07:08:28.924Z,2.12
2019-03-11T07:11:15.423Z,4.42
2019-03-11T07:12:38.614Z,2.70
2019-03-11T07:13:42.827Z,4.40
2019-03-11T07:14:46.671Z,3.58
2019-03-11T07:16:10.334Z,2.35
2019-03-11T07:17:14.166Z,2.83
2019-03-11T07:18:18.314Z,5.55
2019-03-11T07:19:41.593Z,3.15
2019-03-11T07:20:45.709Z,3.15
2019-03-11T07:22:08.741Z,1.52
2019-03-11T07:23:13.302Z,2.45
2019-03-11T07:24:36.490Z,4.90
2019-03-11T07:25:59.859Z,4.03
2019-03-11T07:27:04.187Z,4.25
2019-03-11T07:28:08.473Z,4.33
2019-03-11T07:29:31.700Z,2.95
2019-03-11T07:30:55.206Z,2.65
2019-03-11T07:33:09.880Z,4.22
2019-03-11T07:34:14.008Z,3.98
2019-03-11T07:35:18.274Z,4.03
2019-03-11T07:36:22.462Z,3.83
2019-03-11T07:37:45.379Z,6.92
2019-03-11T07:38:49.487Z,5.40
2019-03-11T07:40:12.661Z,2.85
2019-03-11T07:41:16.634Z,6.47
2019-03-11T07:42:20.743Z,5.55
2019-03-11T07:43:24.638Z,1.90
2019-03-11T07:44:28.867Z,3.83
2019-03-11T07:45:33.080Z,4.62
2019-03-11T07:46:56.316Z,3.55
2019-03-11T07:48:19.325Z,3.85
2019-03-11T07:49:42.327Z,2.95
2019-03-11T07:51:05.343Z,6.22
2019-03-11T07:52:28.457Z,6.47
2019-03-11T07:53:32.619Z,4.30
2019-03-11T07:54:36.708Z,4.10
2019-03-11T07:55:40.850Z,6.22
2019-03-11T07:56:44.668Z,3.50
2019-03-11T07:57:48.497Z,4.90
2019-03-11T07:58:52.322Z,6.42
2019-03-11T07:59:56.487Z,4.75
2019-03-11T08:01:00.659Z,7.58
2019-03-11T08:02:04.626Z,2.92
2019-03-11T08:03:08.883Z,3.90
2019-03-11T08:04:12.952Z,5.35
2019-03-11T08:05:16.920Z,4.17
2019-03-11T08:06:20.983Z,5.08
2019-03-11T08:07:27.335Z,6.78
2019-03-11T08:08:30.738Z,4.78
2019-03-11T08:09:38.053Z,5.33
2019-03-11T08:10:40.237Z,4.67
2019-03-11T08:11:44.301Z,3.58
2019-03-11T08:12:48.286Z,4.35
2019-03-11T08:13:52.105Z,4.22
2019-03-11T08:14:56.432Z,3.95
2019-03-11T08:16:00.567Z,5.05
2019-03-11T08:17:04.456Z,5.33
2019-03-11T08:18:10.698Z,6.33
2019-03-11T08:19:14.483Z,6.12
2019-03-11T08:22:01.047Z,6.97
2019-03-11T08:23:24.093Z,9.68
2019-03-11T08:24:47.562Z,4.25
2019-03-11T08:26:10.685Z,6.40
2019-03-11T08:27:15.250Z,4.03
2019-03-11T08:28:38.499Z,6.83
2019-03-11T08:29:42.641Z,5.85
2019-03-11T08:31:05.855Z,3.90
2019-03-11T08:32:09.749Z,4.08
2019-03-11T08:33:13.910Z,2.80
2019-03-11T08:34:17.804Z,4.62
2019-03-11T08:35:40.817Z,4.58
2019-03-11T08:36:45.227Z,5.45
2019-03-11T08:38:08.277Z,3.90
2019-03-11T08:39:31.285Z,4.95
2019-03-11T08:40:35.116Z,8.70
2019-03-11T08:41:58.471Z,5.03
2019-03-11T08:44:25.821Z,5.45
2019-03-11T08:45:30.065Z,9.25
2019-03-11T08:46:53.269Z,6.28
2019-03-11T08:48:16.640Z,4.00
2019-03-11T08:49:20.476Z,6.03
2019-03-11T08:52:06.578Z,3.02
2019-03-11T08:54:33.366Z,6.53
2019-03-11T08:57:00.559Z,4.72
2019-03-11T08:58:23.576Z,6.45
2019-03-11T08:59:47.026Z,5.67
2019-03-11T09:00:51.192Z,2.72
2019-03-11T09:01:55.096Z,4.83
2019-03-11T09:02:58.930Z,5.40
2019-03-11T09:04:22.548Z,6.40
2019-03-11T09:07:10.288Z,5.87
2019-03-11T09:08:14.105Z,3.83
2019-03-11T09:09:17.946Z,6.20
2019-03-11T09:10:41.288Z,5.60
2019-03-11T09:12:04.419Z,5.72
2019-03-11T09:13:08.247Z,3.72
2019-03-11T09:14:12.422Z,6.50
2019-03-11T09:15:16.400Z,7.87
2019-03-11T09:16:20.220Z,4.17
2019-03-11T09:17:24.292Z,5.00
2019-03-11T09:18:28.306Z,4.40
2019-03-11T09:19:32.138Z,9.30
2019-03-11T09:20:36.034Z,2.92
2019-03-11T09:21:40.166Z,5.22
2019-03-11T09:22:44.313Z,4.30
2019-03-11T09:23:48.722Z,5.65
2019-03-11T09:24:53.117Z,4.58
2019-03-11T09:25:57.255Z,5.30
2019-03-11T09:27:01.401Z,8.45
2019-03-11T09:28:05.376Z,5.00
2019-03-11T09:29:09.420Z,3.15
2019-03-11T09:30:16.199Z,3.45
2019-03-11T09:31:20.024Z,4.92
2019-03-11T09:32:23.991Z,3.55
2019-03-11T09:33:27.893Z,4.05
2019-03-11T09:34:31.717Z,4.92
2019-03-11T09:35:35.687Z,8.40
2019-03-11T09:36:40.080Z,4.33
2019-03-11T09:37:44.673Z,5.58
2019-03-11T09:38:48.555Z,2.77
2019-03-11T09:40:31.285Z,5.90
2019-03-11T09:41:35.105Z,4.28
2019-03-11T09:42:39.169Z,5.87
2019-03-11T09:43:43.319Z,4.85
2019-03-11T09:45:06.354Z,4.90
2019-03-11T09:47:52.697Z,4.50
2019-03-11T09:48:56.875Z,4.35
2019-03-11T09:50:00.794Z,4.90
2019-03-11T09:51:23.815Z,11.05
2019-03-11T09:52:27.791Z,7.95
2019-03-11T09:53:50.757Z,5.50
2019-03-11T09:54:54.601Z,5.97
2019-03-11T09:55:58.525Z,4.58
2019-03-11T09:58:44.559Z,5.53
2019-03-11T09:59:48.399Z,6.60
2019-03-11T10:02:34.375Z,4.25
2019-03-11T10:03:38.285Z,4.80
2019-03-11T10:04:42.212Z,6.22
2019-03-11T10:06:05.108Z,5.95
2019-03-11T10:08:51.558Z,4.67
2019-03-11T10:09:55.408Z,10.10
2019-03-11T10:11:18.427Z,5.75
2019-03-11T10:12:41.963Z,3.37
2019-03-11T10:13:45.842Z,5.08
2019-03-11T10:14:50.133Z,6.05
2019-03-11T10:16:13.045Z,6.42
2019-03-11T10:17:17.279Z,3.77
2019-03-11T10:18:40.843Z,5.58
2019-03-11T10:20:03.925Z,6.03
2019-03-11T10:21:07.837Z,4.20
2019-03-11T10:22:11.963Z,5.03
2019-03-11T10:23:35.263Z,7.22
2019-03-11T10:24:39.720Z,5.92
2019-03-11T10:26:03.010Z,5.03
2019-03-11T10:27:25.973Z,5.70
2019-03-11T10:28:30.472Z,3.47
2019-03-11T10:29:53.623Z,4.05
2019-03-11T10:31:16.978Z,6.33
2019-03-11T10:32:21.724Z,8.95
2019-03-11T10:33:25.629Z,5.33
2019-03-11T10:34:48.976Z,5.92
2019-03-11T10:35:53.258Z,6.55
2019-03-11T10:37:16.587Z,9.15
2019-03-11T10:38:39.606Z,5.03
2019-03-11T10:39:43.440Z,4.58
2019-03-11T10:40:48.167Z,9.73
2019-03-11T10:42:11.399Z,6.67
2019-03-11T10:43:34.695Z,6.37
2019-03-11T10:44:57.806Z,11.68
2019-03-11T10:46:21.073Z,8.98
2019-03-11T10:47:24.977Z,5.17
2019-03-11T10:48:48.000Z,6.92
2019-03-11T10:51:34.357Z,5.47
2019-03-11T10:52:38.579Z,7.28
2019-03-11T10:56:50.225Z,5.25
2019-03-11T10:58:13.190Z,3.15
2019-03-11T10:59:36.537Z,5.25
2019-03-11T11:00:40.839Z,5.20
2019-03-11T11:02:04.133Z,4.30
2019-03-11T11:03:08.350Z,9.80
2019-03-11T11:04:12.258Z,2.50
2019-03-11T11:05:35.283Z,6.20
2019-03-11T11:06:39.959Z,1.60
2019-03-11T11:07:43.865Z,3.40
2019-03-11T11:08:47.769Z,2.17
2019-03-11T11:09:51.676Z,4.35
2019-03-11T11:10:55.745Z,5.25
2019-03-11T11:12:19.069Z,3.98
2019-03-11T11:13:22.971Z,4.75
2019-03-11T11:14:26.863Z,3.98
2019-03-11T11:15:30.990Z,4.78
2019-03-11T11:16:35.629Z,3.27
2019-03-11T11:18:49.354Z,5.28
2019-03-11T11:21:35.849Z,6.10
2019-03-11T11:22:39.834Z,3.70
2019-03-11T11:24:02.936Z,4.85
2019-03-11T11:25:08.148Z,3.42
2019-03-11T11:26:12.313Z,3.77
2019-03-11T11:27:16.211Z,4.85
2019-03-11T11:28:20.509Z,5.42
2019-03-11T11:29:24.331Z,4.67
2019-03-11T11:30:28.668Z,4.47
2019-03-11T11:31:32.483Z,3.87
2019-03-11T11:32:37.057Z,4.55
2019-03-11T11:33:41.183Z,3.35
2019-03-11T11:34:45.088Z,4.12
2019-03-11T11:35:48.920Z,5.83
2019-03-11T11:37:12.125Z,7.17
2019-03-11T11:38:16.036Z,5.47
2019-03-11T11:39:20.330Z,5.95
2019-03-11T11:40:24.509Z,5.20
2019-03-11T11:41:28.432Z,4.80
2019-03-11T11:42:32.763Z,7.72
2019-03-11T11:43:36.752Z,5.05
2019-03-11T11:44:40.826Z,4.45
2019-03-11T11:45:44.726Z,2.95
2019-03-11T11:46:48.957Z,2.90
2019-03-11T11:47:53.261Z,4.22
2019-03-11T11:51:56.670Z,4.40
2019-03-11T11:53:19.940Z,1.72
2019-03-11T11:54:23.904Z,5.15
2019-03-11T11:55:27.879Z,5.95
2019-03-11T11:56:50.806Z,5.17
2019-03-11T11:57:55.079Z,7.45
2019-03-11T11:58:58.987Z,5.47
2019-03-11T12:00:02.974Z,4.60
2019-03-11T12:01:06.944Z,7.95
2019-03-11T12:02:10.913Z,6.72
2019-03-11T12:03:14.814Z,9.05
2019-03-11T12:04:18.943Z,5.72
2019-03-11T12:05:22.907Z,4.45
2019-03-11T12:06:26.794Z,3.30
2019-03-11T12:07:31.039Z,7.30
2019-03-11T12:08:35.018Z,5.10
2019-03-11T12:09:39.076Z,4.45
2019-03-11T12:10:43.221Z,4.50
2019-03-11T12:11:47.352Z,5.35
2019-03-11T12:12:51.319Z,6.45
2019-03-11T12:13:55.395Z,6.95
2019-03-11T12:14:59.365Z,4.95
2019-03-11T12:16:03.327Z,5.15
2019-03-11T12:17:07.290Z,9.08
2019-03-11T12:18:11.758Z,4.33
2019-03-11T12:19:15.590Z,4.78
2019-03-11T12:20:21.118Z,6.70
2019-03-11T12:21:25.325Z,4.47
2019-03-11T12:22:29.541Z,6.53
2019-03-11T12:23:33.760Z,7.42
2019-03-11T12:24:37.724Z,4.83
2019-03-11T12:26:00.812Z,5.67
2019-03-11T12:28:27.746Z,2.77
2019-03-11T12:29:31.653Z,6.53
2019-03-11T12:30:35.895Z,3.33
2019-03-11T12:31:40.342Z,4.50
2019-03-11T12:32:44.721Z,4.15
2019-03-11T12:33:48.700Z,4.58
2019-03-11T12:34:53.210Z,3.60
2019-03-11T12:35:57.423Z,5.53
2019-03-11T12:37:02.253Z,5.08
2019-03-11T12:38:06.729Z,5.08
2019-03-11T12:39:30.269Z,3.67
2019-03-11T12:40:34.686Z,3.80
2019-03-11T12:41:58.043Z,4.97
2019-03-11T12:43:21.132Z,5.17
2019-03-11T12:44:25.571Z,4.78
2019-03-11T12:45:29.822Z,5.47
2019-03-11T12:46:53.086Z,8.73
2019-03-11T12:47:56.985Z,4.67
2019-03-11T12:49:01.381Z,5.80
2019-03-11T12:50:45.298Z,6.87
2019-03-11T12:51:50.349Z,4.75
2019-03-11T12:52:55.181Z,3.58
2019-03-11T12:53:59.011Z,4.55
2019-03-11T12:55:03.167Z,4.50
2019-03-11T12:56:26.181Z,2.12
2019-03-11T12:57:30.422Z,4.90
2019-03-11T12:58:41.547Z,6.28
2019-03-11T12:59:40.982Z,5.83
2019-03-11T13:01:05.424Z,6.62
2019-03-11T13:02:28.967Z,5.12
2019-03-11T13:03:33.433Z,2.12
2019-03-11T13:04:56.804Z,3.12
2019-03-11T13:06:00.882Z,4.97
2019-03-11T13:07:23.848Z,3.22
2019-03-11T13:08:27.936Z,2.08
2019-03-11T13:09:32.419Z,5.42
2019-03-11T13:10:55.319Z,3.87
2019-03-11T13:12:18.327Z,5.45
2019-03-11T13:13:22.542Z,4.03
2019-03-11T13:14:45.897Z,2.00
2019-03-11T13:16:09.096Z,3.17
2019-03-11T13:17:12.990Z,3.33
2019-03-11T13:18:55.127Z,4.42
2019-03-11T13:19:59.810Z,4.85
2019-03-11T13:21:08.353Z,6.95
2019-03-11T13:22:12.321Z,3.92
2019-03-11T13:23:16.388Z,3.55
2019-03-11T13:24:20.362Z,5.25
2019-03-11T13:25:24.355Z,3.08
2019-03-11T13:26:28.575Z,6.33
2019-03-11T13:27:32.718Z,7.67
2019-03-11T13:28:36.866Z,6.22
2019-03-11T13:29:40.938Z,7.15
2019-03-11T13:30:44.846Z,4.22
2019-03-11T13:31:48.811Z,3.90
2019-03-11T13:32:52.701Z,3.95
2019-03-11T13:33:56.522Z,10.38
2019-03-11T13:35:00.671Z,4.35
2019-03-11T13:36:06.898Z,2.47
2019-03-11T13:37:11.116Z,3.25
2019-03-11T13:38:15.013Z,3.33
2019-03-11T13:39:19.085Z,3.47
2019-03-11T13:40:23.552Z,7.17
2019-03-11T13:41:27.710Z,3.90
2019-03-11T13:42:31.933Z,4.17
2019-03-11T13:43:36.430Z,6.20
2019-03-11T13:44:40.587Z,6.95
2019-03-11T13:45:44.790Z,2.25
2019-03-11T13:46:48.958Z,4.10
2019-03-11T13:47:53.179Z,4.12
2019-03-11T13:48:57.399Z,4.67
2019-03-11T13:50:01.905Z,5.45
2019-03-11T13:51:06.307Z,5.05
2019-03-11T13:52:10.347Z,5.05
2019-03-11T13:53:15.240Z,8.75
2019-03-11T13:54:19.884Z,4.42
2019-03-11T13:55:23.776Z,3.50
2019-03-11T13:57:09.992Z,4.05
2019-03-11T13:59:37.160Z,4.33
2019-03-11T14:00:41.147Z,4.17
2019-03-11T14:01:45.328Z,4.03
2019-03-11T14:02:49.334Z,3.12
2019-03-11T14:03:53.479Z,5.70
2019-03-11T14:04:57.673Z,8.63
2019-03-11T14:06:01.493Z,5.45
2019-03-11T14:07:24.385Z,4.45
2019-03-11T14:08:28.480Z,11.48
2019-03-11T14:09:33.197Z,4.62
2019-03-11T14:10:37.033Z,6.42
2019-03-11T14:11:41.178Z,2.90
2019-03-11T14:12:45.082Z,5.33
2019-03-11T14:15:12.162Z,5.55
2019-03-11T14:17:40.009Z,5.80
2019-03-11T14:18:44.468Z,3.15
2019-03-11T14:19:49.038Z,1.90
2019-03-11T14:21:12.226Z,3.30
2019-03-11T14:22:16.397Z,6.37
2019-03-11T14:24:43.583Z,11.73
2019-03-11T14:25:47.562Z,5.95
2019-03-11T14:26:51.750Z,3.72
2019-03-11T14:27:55.996Z,3.40
2019-03-11T14:28:59.896Z,8.43
2019-03-11T14:30:22.836Z,4.17
2019-03-11T14:31:26.968Z,5.67
2019-03-11T14:32:31.438Z,6.97
2019-03-11T14:33:35.596Z,3.92
2019-03-11T14:36:21.922Z,3.10
2019-03-11T14:37:26.232Z,3.40
2019-03-11T14:38:30.438Z,3.35
2019-03-11T14:39:34.596Z,4.10
2019-03-11T14:40:38.710Z,3.98
2019-03-11T14:41:42.798Z,7.75
2019-03-11T14:42:47.061Z,4.35
2019-03-11T14:43:51.465Z,7.50
2019-03-11T14:44:55.668Z,17.90
2019-03-11T14:47:41.631Z,4.62
2019-03-11T14:48:46.080Z,4.25
2019-03-11T14:50:09.147Z,6.28
2019-03-11T14:51:32.274Z,4.17
2019-03-11T14:52:55.533Z,5.12
2019-03-11T14:53:59.365Z,4.17
2019-03-11T14:55:22.339Z,4.60
2019-03-11T14:56:45.450Z,5.60
2019-03-11T14:57:49.432Z,4.08
2019-03-11T14:58:53.955Z,5.83
2019-03-11T14:59:57.916Z,10.25
2019-03-11T15:01:02.205Z,9.10
2019-03-11T15:02:06.628Z,11.45
2019-03-11T15:03:11.123Z,10.93
2019-03-11T15:04:15.468Z,7.00
2019-03-11T15:05:19.547Z,3.85
2019-03-11T15:06:23.386Z,4.47
2019-03-11T15:09:09.713Z,4.90
2019-03-11T15:13:20.398Z,4.85
2019-03-11T15:14:43.751Z,4.87
2019-03-11T15:15:47.598Z,3.77
2019-03-11T15:17:10.859Z,4.58
2019-03-11T15:18:34.310Z,4.50
2019-03-11T15:19:38.220Z,5.80
2019-03-11T15:20:42.721Z,3.27
2019-03-11T15:22:05.679Z,8.05
2019-03-11T15:23:29.038Z,4.67
2019-03-11T15:24:32.937Z,5.25
2019-03-11T15:25:37.492Z,2.65
2019-03-11T15:26:41.783Z,6.65
2019-03-11T15:27:45.756Z,4.15
2019-03-11T15:28:49.608Z,4.95
2019-03-11T15:31:16.743Z,4.62
2019-03-11T15:32:21.028Z,3.83
2019-03-11T15:33:25.202Z,5.80
2019-03-11T15:34:29.410Z,4.20
2019-03-11T15:35:41.200Z,6.42
2019-03-11T15:36:45.417Z,7.05
2019-03-11T15:37:49.668Z,5.08
2019-03-11T15:39:13.163Z,4.50
2019-03-11T15:40:17.477Z,5.95
2019-03-11T15:41:21.373Z,4.50
2019-03-11T15:42:25.455Z,5.10
2019-03-11T15:43:29.928Z,4.95
2019-03-11T15:44:33.834Z,5.55
2019-03-11T15:45:38.819Z,3.83
2019-03-11T15:46:43.526Z,3.50
2019-03-11T15:47:47.739Z,4.83
2019-03-11T15:48:51.927Z,6.30
2019-03-11T15:49:56.019Z,2.98
2019-03-11T15:50:59.915Z,4.60
2019-03-11T15:52:04.383Z,7.35
2019-03-11T15:53:08.712Z,5.65
2019-03-11T15:54:13.038Z,4.55
2019-03-11T15:55:17.284Z,6.85
2019-03-11T15:56:21.874Z,9.63
2019-03-11T15:57:25.772Z,5.50
2019-03-11T15:58:29.837Z,6.28
2019-03-11T15:59:34.113Z,3.67
2019-03-11T16:00:38.108Z,3.85
2019-03-11T16:01:42.006Z,5.53
2019-03-11T16:02:46.007Z,2.05
2019-03-11T16:03:49.825Z,5.58
2019-03-11T16:04:53.738Z,3.83
2019-03-11T16:05:58.517Z,2.75
2019-03-11T16:07:02.702Z,5.10
2019-03-11T16:08:06.600Z,3.52
2019-03-11T16:09:19.181Z,5.08
2019-03-11T16:11:46.933Z,2.85
2019-03-11T16:14:14.442Z,6.50
2019-03-11T16:15:18.871Z,6.47
2019-03-11T16:16:22.771Z,4.65
2019-03-11T16:17:26.955Z,3.47
2019-03-11T16:18:31.262Z,3.80
2019-03-11T16:19:35.233Z,4.50
2019-03-11T16:21:48.820Z,6.60
2019-03-11T16:22:53.267Z,3.40
2019-03-11T16:23:57.406Z,5.80
2019-03-11T16:25:01.386Z,6.22
2019-03-11T16:26:05.362Z,3.95
2019-03-11T16:27:09.945Z,5.65
2019-03-11T16:28:14.211Z,7.80
2019-03-11T16:29:18.443Z,7.92
2019-03-11T16:30:22.684Z,6.40
2019-03-11T16:31:26.577Z,7.70
2019-03-11T16:32:30.398Z,7.28
2019-03-11T16:33:34.845Z,3.52
2019-03-11T16:34:38.949Z,7.10
2019-03-11T16:35:43.283Z,4.70
2019-03-11T16:37:06.538Z,5.15
2019-03-11T16:38:11.048Z,4.40
2019-03-11T16:39:15.849Z,5.53
2019-03-11T16:40:20.158Z,7.62
2019-03-11T16:41:24.403Z,4.60
2019-03-11T16:42:47.610Z,5.05